createdAt,value
2023-01-18T00:01:36.048Z,8.50
2023-01-18T00:04:04.767Z,7.53
2023-01-18T00:06:33.733Z,7.43
2023-01-18T00:09:02.055Z,7.22
2023-01-18T00:11:30.827Z,7.50
2023-01-18T00:13:59.369Z,8.27
2023-01-18T00:16:28.208Z,8.57
2023-01-18T00:18:59.030Z,7.95
2023-01-18T00:21:28.718Z,8.02
2023-01-18T00:23:57.261Z,8.25
2023-01-18T00:26:26.394Z,9.30
2023-01-18T00:28:57.420Z,8.57
2023-01-18T00:31:26.343Z,8.07
2023-01-18T00:33:54.794Z,8.95
2023-01-18T00:36:23.359Z,8.90
2023-01-18T00:38:52.356Z,9.55
2023-01-18T00:41:22.799Z,8.18
2023-01-18T00:43:52.182Z,8.65
2023-01-18T00:46:27.511Z,8.55
2023-01-18T00:48:57.681Z,8.48
2023-01-18T00:51:26.379Z,9.80
2023-01-18T00:53:54.762Z,8.50
2023-01-18T00:56:23.710Z,8.93
2023-01-18T00:58:51.998Z,14.95
2023-01-18T01:01:20.860Z,9.45
2023-01-18T01:04:07.338Z,14.32
2023-01-18T01:06:46.237Z,9.40
2023-01-18T01:09:20.146Z,9.10
2023-01-18T01:14:59.028Z,9.30
2023-01-18T01:17:48.009Z,8.48
2023-01-18T01:20:35.330Z,9.15
2023-01-18T01:23:39.836Z,8.85
2023-01-18T01:26:11.207Z,8.70
2023-01-18T01:28:43.211Z,9.35
2023-01-18T01:31:14.549Z,8.93
2023-01-18T01:33:44.001Z,9.32
2023-01-18T01:36:18.699Z,9.13
2023-01-18T01:38:47.614Z,9.98
2023-01-18T01:41:20.003Z,10.73
2023-01-18T01:43:51.519Z,9.83
2023-01-18T01:46:34.886Z,10.40
2023-01-18T01:49:07.519Z,10.05
2023-01-18T01:51:40.702Z,9.27
2023-01-18T01:54:38.318Z,9.93
2023-01-18T01:57:11.303Z,10.23
2023-01-18T01:59:46.629Z,9.05
2023-01-18T02:02:15.254Z,10.48
2023-01-18T02:04:45.489Z,10.38
2023-01-18T02:07:14.138Z,9.98
2023-01-18T02:09:42.770Z,10.20
2023-01-18T02:12:11.128Z,10.35
2023-01-18T02:14:40.468Z,10.18
2023-01-18T02:17:28.878Z,11.07
2023-01-18T02:20:31.177Z,12.00
2023-01-18T02:23:18.011Z,11.25
2023-01-18T02:26:10.433Z,11.25
2023-01-18T02:28:41.818Z,10.68
2023-01-18T02:31:21.790Z,9.88
2023-01-18T02:34:25.208Z,10.05
2023-01-18T02:37:15.025Z,11.17
2023-01-18T02:40:10.997Z,10.77
2023-01-18T02:43:00.868Z,10.80
2023-01-18T02:45:55.247Z,10.43
2023-01-18T02:48:30.837Z,11.48
2023-01-18T02:50:59.310Z,12.65
2023-01-18T02:53:28.468Z,11.98
2023-01-18T02:56:14.262Z,11.32
2023-01-18T02:59:12.150Z,11.80
2023-01-18T03:01:46.520Z,11.38
2023-01-18T03:04:43.970Z,11.52
2023-01-18T03:07:18.519Z,12.48
2023-01-18T03:09:48.269Z,12.10
2023-01-18T03:12:46.291Z,12.32
2023-01-18T03:15:33.379Z,11.15
2023-01-18T03:18:11.514Z,11.38
2023-01-18T03:20:47.090Z,11.13
2023-01-18T03:23:42.635Z,10.95
2023-01-18T03:26:19.581Z,12.40
2023-01-18T03:29:15.298Z,11.07
2023-01-18T03:32:08.200Z,11.00
2023-01-18T03:35:00.508Z,11.75
2023-01-18T03:37:41.772Z,11.48
2023-01-18T03:40:13.816Z,12.57
2023-01-18T03:43:09.168Z,12.45
2023-01-18T03:45:44.669Z,12.52
2023-01-18T03:48:14.199Z,13.30
2023-01-18T03:51:03.039Z,13.07
2023-01-18T03:54:01.160Z,13.65
2023-01-18T03:56:42.258Z,12.30
2023-01-18T03:59:11.130Z,14.52
2023-01-18T04:01:39.789Z,13.32
2023-01-18T04:04:08.586Z,13.05
2023-01-18T04:06:37.258Z,12.23
2023-01-18T04:09:08.630Z,12.80
2023-01-18T04:11:37.029Z,13.45
2023-01-18T04:14:06.628Z,12.43
2023-01-18T04:16:35.144Z,13.55
2023-01-18T04:19:03.948Z,12.82
2023-01-18T04:21:32.485Z,12.57
2023-01-18T04:24:01.740Z,13.63
2023-01-18T04:26:30.389Z,14.75
2023-01-18T04:28:59.350Z,12.70
2023-01-18T04:31:27.870Z,15.05
2023-01-18T04:33:56.708Z,13.77
2023-01-18T04:36:25.307Z,15.00
2023-01-18T04:38:55.185Z,14.50
2023-01-18T04:41:24.337Z,15.00
2023-01-18T04:43:52.883Z,14.90
2023-01-18T04:46:20.962Z,15.52
2023-01-18T04:48:51.478Z,14.57
2023-01-18T04:51:19.831Z,14.35
2023-01-18T04:53:48.421Z,15.38
2023-01-18T04:56:17.251Z,15.95
2023-01-18T04:58:46.764Z,15.77
2023-01-18T05:01:16.874Z,14.20
2023-01-18T05:03:45.371Z,15.80
2023-01-18T05:06:16.103Z,17.25
2023-01-18T05:08:44.417Z,15.35
2023-01-18T05:11:15.048Z,16.08
2023-01-18T05:13:44.533Z,16.25
2023-01-18T05:16:19.301Z,16.00
2023-01-18T05:18:47.729Z,17.25
2023-01-18T05:21:16.121Z,16.58
2023-01-18T05:23:44.691Z,17.73
2023-01-18T05:26:17.789Z,18.45
2023-01-18T05:28:47.079Z,19.13
2023-01-18T05:31:16.387Z,16.95
2023-01-18T05:33:45.475Z,18.63
2023-01-18T05:36:13.799Z,18.90
2023-01-18T05:38:42.159Z,18.55
2023-01-18T05:41:10.260Z,18.20
2023-01-18T05:43:38.679Z,17.45
2023-01-18T05:46:06.926Z,17.65
2023-01-18T05:48:35.374Z,16.85
2023-01-18T05:51:11.302Z,17.05
2023-01-18T05:53:41.702Z,16.40
2023-01-18T05:56:10.027Z,14.98
2023-01-18T05:58:39.560Z,17.25
2023-01-18T06:01:09.010Z,16.98
2023-01-18T06:03:37.640Z,16.75
2023-01-18T06:06:05.863Z,18.02
2023-01-18T06:08:35.562Z,16.38
2023-01-18T06:11:04.684Z,18.52
2023-01-18T06:13:33.220Z,16.77
2023-01-18T06:16:02.347Z,17.38
2023-01-18T06:18:33.111Z,17.77
2023-01-18T06:21:03.275Z,17.58
2023-01-18T06:23:32.018Z,17.40
2023-01-18T06:26:00.331Z,18.45
2023-01-18T06:28:30.675Z,16.67
2023-01-18T06:30:59.373Z,18.05
2023-01-18T06:33:28.002Z,19.10
2023-01-18T06:35:55.960Z,17.23
2023-01-18T06:38:24.389Z,18.40
2023-01-18T06:40:52.415Z,20.38
2023-01-18T06:43:20.785Z,22.00
2023-01-18T06:45:56.239Z,18.23
2023-01-18T06:48:26.860Z,19.75
2023-01-18T06:50:57.678Z,18.65
2023-01-18T06:53:26.607Z,17.35
2023-01-18T06:55:59.494Z,18.30
2023-01-18T06:58:28.893Z,18.63
2023-01-18T07:00:59.166Z,20.08
2023-01-18T07:03:29.133Z,18.80
2023-01-18T07:05:59.076Z,19.20
2023-01-18T07:08:28.613Z,17.48
2023-01-18T07:10:57.791Z,20.20
2023-01-18T07:13:27.333Z,17.00
2023-01-18T07:16:00.882Z,19.58
2023-01-18T07:18:30.699Z,18.83
2023-01-18T07:21:07.455Z,18.33
2023-01-18T07:23:40.721Z,18.08
2023-01-18T07:26:16.613Z,18.83
2023-01-18T07:28:46.503Z,19.42
2023-01-18T07:31:15.341Z,19.08
2023-01-18T07:33:43.981Z,18.17
2023-01-18T07:36:13.025Z,16.88
2023-01-18T07:38:41.722Z,17.33
2023-01-18T07:41:14.421Z,16.08
2023-01-18T07:43:45.057Z,19.95
2023-01-18T07:46:16.697Z,19.17
2023-01-18T07:48:45.217Z,18.05
2023-01-18T07:51:13.486Z,18.05
2023-01-18T07:53:42.289Z,18.45
2023-01-18T07:56:16.746Z,18.45
2023-01-18T07:58:46.322Z,18.05
2023-01-18T08:01:17.309Z,19.02
2023-01-18T08:03:50.068Z,19.17
2023-01-18T08:06:25.295Z,18.85
2023-01-18T08:08:57.744Z,17.42
2023-01-18T08:11:26.112Z,17.92
2023-01-18T08:13:54.390Z,20.52
2023-01-18T08:16:22.510Z,18.42
2023-01-18T08:18:52.243Z,18.48
2023-01-18T08:21:20.300Z,18.00
2023-01-18T08:23:48.670Z,18.52
2023-01-18T08:26:16.746Z,18.98
2023-01-18T08:28:45.094Z,17.75
2023-01-18T08:31:16.533Z,18.20
2023-01-18T08:33:47.174Z,17.83
2023-01-18T08:36:18.398Z,17.52
2023-01-18T08:38:52.230Z,16.67
2023-01-18T08:41:21.433Z,17.55
2023-01-18T08:43:52.584Z,18.33
2023-01-18T08:46:22.312Z,16.38
2023-01-18T08:48:56.533Z,18.30
2023-01-18T08:53:57.595Z,17.63
2023-01-18T08:56:26.111Z,18.38
2023-01-18T08:58:54.774Z,18.83
2023-01-18T09:01:23.835Z,20.40
2023-01-18T09:03:58.362Z,19.52
2023-01-18T09:06:32.273Z,20.10
2023-01-18T09:09:01.780Z,20.48
2023-01-18T09:11:29.845Z,19.67
2023-01-18T09:14:01.227Z,21.10
2023-01-18T09:16:30.926Z,21.17
2023-01-18T09:19:00.050Z,20.25
2023-01-18T09:21:28.977Z,21.60
2023-01-18T09:23:59.775Z,21.50
2023-01-18T09:26:31.044Z,21.38
2023-01-18T09:28:59.433Z,22.23
2023-01-18T09:31:28.533Z,21.38
2023-01-18T09:34:09.491Z,21.15
2023-01-18T09:36:45.904Z,20.48
2023-01-18T09:39:14.271Z,20.63
2023-01-18T09:41:44.861Z,22.08
2023-01-18T09:44:32.050Z,21.55
2023-01-18T09:47:15.099Z,23.55
2023-01-18T09:50:02.520Z,20.42
2023-01-18T09:52:55.510Z,19.92
2023-01-18T09:56:02.657Z,22.10
2023-01-18T09:58:43.916Z,22.77
2023-01-18T10:01:17.486Z,20.67
2023-01-18T10:03:55.525Z,20.95
2023-01-18T10:06:33.044Z,23.17
2023-01-18T10:09:12.563Z,24.85
2023-01-18T10:11:55.123Z,22.67
2023-01-18T10:14:32.286Z,26.08
2023-01-18T10:17:05.111Z,23.95
2023-01-18T10:19:34.538Z,25.08
2023-01-18T10:22:26.013Z,22.67
2023-01-18T10:25:14.873Z,26.27
2023-01-18T10:28:25.431Z,23.70
2023-01-18T10:31:04.377Z,25.52
2023-01-18T10:33:38.602Z,22.48
2023-01-18T10:36:16.018Z,24.08
2023-01-18T10:38:45.827Z,25.05
2023-01-18T10:41:23.282Z,22.25
2023-01-18T10:43:51.546Z,22.52
2023-01-18T10:46:20.482Z,24.35
2023-01-18T10:48:51.378Z,22.48
2023-01-18T10:51:38.184Z,22.17
2023-01-18T10:54:18.218Z,23.55
2023-01-18T10:56:48.132Z,23.67
2023-01-18T10:59:31.219Z,23.92
2023-01-18T11:02:01.318Z,21.50
2023-01-18T11:04:31.802Z,21.80
2023-01-18T11:07:05.326Z,23.38
2023-01-18T11:09:43.919Z,21.20
2023-01-18T11:12:36.622Z,22.60
2023-01-18T11:15:13.551Z,22.55
2023-01-18T11:17:54.824Z,23.05
2023-01-18T11:20:29.669Z,23.65
2023-01-18T11:23:14.793Z,23.35
2023-01-18T11:25:56.873Z,23.48
2023-01-18T11:28:28.221Z,22.52
2023-01-18T11:30:59.130Z,22.17
2023-01-18T11:33:29.834Z,21.95
2023-01-18T11:36:00.817Z,20.92
2023-01-18T11:38:35.006Z,20.40
2023-01-18T11:41:22.483Z,22.98
2023-01-18T11:43:59.511Z,21.35
2023-01-18T11:46:55.856Z,21.65
2023-01-18T11:49:37.265Z,20.67
2023-01-18T11:52:42.586Z,19.55
2023-01-18T11:55:21.583Z,19.27
2023-01-18T11:57:51.363Z,17.52
2023-01-18T12:00:28.403Z,17.35
2023-01-18T12:03:34.810Z,16.08
2023-01-18T12:06:08.203Z,16.60
2023-01-18T12:09:16.043Z,19.05
2023-01-18T12:12:18.465Z,20.95
2023-01-18T12:15:25.734Z,20.75
2023-01-18T12:18:13.500Z,20.55
2023-01-18T12:21:05.256Z,19.60
2023-01-18T12:23:48.442Z,22.70
2023-01-18T12:26:37.921Z,22.70
2023-01-18T12:29:29.433Z,23.10
2023-01-18T12:32:28.382Z,22.00
2023-01-18T12:35:24.636Z,22.27
2023-01-18T12:38:14.161Z,21.88
2023-01-18T12:41:14.599Z,22.30
2023-01-18T12:44:04.194Z,22.85
2023-01-18T12:46:45.766Z,24.90
2023-01-18T12:49:19.340Z,21.00
2023-01-18T12:52:06.064Z,20.25
2023-01-18T12:54:47.822Z,21.05
2023-01-18T12:57:17.366Z,21.38
2023-01-18T13:00:00.095Z,22.17
2023-01-18T13:02:39.203Z,20.90
2023-01-18T13:05:16.173Z,21.13
2023-01-18T13:07:59.363Z,21.13
2023-01-18T13:10:29.052Z,19.95
2023-01-18T13:12:58.965Z,20.63
2023-01-18T13:15:31.816Z,25.17
2023-01-18T13:18:17.116Z,22.50
2023-01-18T13:20:57.326Z,29.15
2023-01-18T13:23:28.714Z,24.33
2023-01-18T13:26:33.891Z,26.80
2023-01-18T13:29:14.182Z,24.40
2023-01-18T13:31:42.639Z,23.85
2023-01-18T13:34:34.706Z,21.90
2023-01-18T13:37:14.935Z,21.70
2023-01-18T13:39:48.321Z,21.58
2023-01-18T13:42:22.389Z,21.45
2023-01-18T13:45:14.147Z,19.20
2023-01-18T13:47:48.623Z,20.45
2023-01-18T13:50:31.579Z,20.13
2023-01-18T13:53:14.442Z,21.65
2023-01-18T13:56:23.730Z,20.83
2023-01-18T13:59:13.160Z,20.25
2023-01-18T14:01:45.047Z,25.10
2023-01-18T14:04:27.672Z,21.88
2023-01-18T14:07:00.882Z,24.75
2023-01-18T14:09:34.663Z,22.63
2023-01-18T14:12:05.773Z,23.25
2023-01-18T14:14:51.855Z,24.10
2023-01-18T14:17:20.130Z,22.77
2023-01-18T14:19:48.052Z,23.08
2023-01-18T14:22:26.990Z,23.23
2023-01-18T14:24:58.001Z,22.52
2023-01-18T14:27:32.942Z,23.45
2023-01-18T14:30:12.794Z,22.50
2023-01-18T14:32:50.852Z,22.20
2023-01-18T14:35:25.445Z,22.70
2023-01-18T14:38:17.757Z,22.75
2023-01-18T14:40:50.379Z,21.70
2023-01-18T14:43:32.620Z,21.75
2023-01-18T14:46:05.821Z,22.92
2023-01-18T14:48:43.533Z,23.13
2023-01-18T14:51:18.567Z,23.38
2023-01-18T14:53:54.919Z,24.38
2023-01-18T14:56:26.203Z,22.15
2023-01-18T14:59:03.459Z,23.73
2023-01-18T15:01:40.132Z,21.45
2023-01-18T15:04:24.218Z,22.30
2023-01-18T15:07:04.179Z,23.17
2023-01-18T15:09:36.331Z,23.02
2023-01-18T15:12:10.813Z,23.67
2023-01-18T15:14:45.023Z,24.45
2023-01-18T15:19:55.279Z,22.95
2023-01-18T15:22:31.374Z,21.45
2023-01-18T15:25:01.427Z,22.67
2023-01-18T15:27:32.653Z,22.35
2023-01-18T15:30:02.647Z,21.55
2023-01-18T15:32:33.171Z,22.08
2023-01-18T15:35:04.031Z,21.45
2023-01-18T15:37:37.886Z,20.13
2023-01-18T15:40:15.347Z,20.58
2023-01-18T15:42:59.487Z,23.38
2023-01-18T15:45:33.814Z,22.63
2023-01-18T15:48:15.310Z,20.48
2023-01-18T15:50:47.059Z,20.42
2023-01-18T15:53:25.718Z,21.17
2023-01-18T15:56:03.709Z,20.58
2023-01-18T15:58:37.643Z,20.48
2023-01-18T16:01:08.439Z,20.30
2023-01-18T16:03:59.954Z,22.17
2023-01-18T16:06:33.907Z,21.60
2023-01-18T16:09:12.246Z,21.45
2023-01-18T16:11:44.561Z,21.83
2023-01-18T16:14:34.544Z,25.65
2023-01-18T16:17:07.629Z,21.25
2023-01-18T16:19:41.322Z,20.50
2023-01-18T16:22:24.337Z,21.33
2023-01-18T16:24:55.501Z,31.52
2023-01-18T16:27:26.708Z,22.67
2023-01-18T16:29:57.727Z,22.73
2023-01-18T16:32:28.012Z,20.40
2023-01-18T16:35:14.750Z,20.92
2023-01-18T16:37:46.260Z,20.55
2023-01-18T16:40:20.283Z,23.67
2023-01-18T16:43:29.544Z,24.45
2023-01-18T16:45:59.209Z,28.35
2023-01-18T16:48:30.855Z,26.75
2023-01-18T16:51:02.236Z,30.60
2023-01-18T16:53:31.929Z,33.97
2023-01-18T16:55:59.925Z,38.60
2023-01-18T16:58:29.030Z,31.45
2023-01-18T17:01:16.008Z,28.77
2023-01-18T17:03:45.129Z,29.48
2023-01-18T17:06:18.759Z,28.10
2023-01-18T17:08:48.472Z,24.92
2023-01-18T17:11:17.735Z,26.13
2023-01-18T17:13:47.957Z,24.98
2023-01-18T17:16:18.985Z,24.33
2023-01-18T17:18:48.139Z,24.20
2023-01-18T17:21:16.167Z,23.88
2023-01-18T17:23:45.399Z,24.20
2023-01-18T17:26:16.139Z,27.33
2023-01-18T17:28:45.117Z,26.55
2023-01-18T17:31:13.229Z,25.40
2023-01-18T17:33:43.190Z,23.95
2023-01-18T17:36:11.202Z,23.80
2023-01-18T17:38:39.523Z,24.20
2023-01-18T17:41:11.306Z,24.27
2023-01-18T17:43:41.733Z,21.55
2023-01-18T17:46:09.742Z,20.73
2023-01-18T17:48:39.197Z,23.98
2023-01-18T17:51:11.480Z,23.38
2023-01-18T17:53:41.153Z,21.90
2023-01-18T17:56:11.539Z,23.42
2023-01-18T17:58:40.459Z,23.90
2023-01-18T18:01:12.991Z,25.55
2023-01-18T18:03:47.980Z,25.95
2023-01-18T18:06:26.167Z,25.33
2023-01-18T18:08:59.052Z,26.83
2023-01-18T18:11:27.075Z,24.70
2023-01-18T18:13:56.952Z,25.45
2023-01-18T18:16:25.796Z,25.40
2023-01-18T18:18:54.164Z,24.00
2023-01-18T18:21:26.439Z,24.83
2023-01-18T18:23:54.659Z,25.25
2023-01-18T18:26:22.555Z,25.02
2023-01-18T18:28:50.789Z,24.05
2023-01-18T18:31:20.760Z,24.80
2023-01-18T18:33:49.112Z,24.92
2023-01-18T18:36:17.081Z,24.65
2023-01-18T18:38:46.400Z,24.42
2023-01-18T18:41:14.405Z,23.52
2023-01-18T18:43:42.655Z,25.27
2023-01-18T18:46:10.674Z,23.63
2023-01-18T18:48:38.963Z,23.02
2023-01-18T18:51:06.901Z,23.67
2023-01-18T18:53:38.487Z,24.85
2023-01-18T18:58:40.233Z,23.17
2023-01-18T19:01:18.750Z,23.13
2023-01-18T19:03:48.073Z,23.52
2023-01-18T19:06:16.102Z,22.55
2023-01-18T19:08:45.077Z,23.83
2023-01-18T19:11:13.248Z,23.40
2023-01-18T19:13:42.982Z,26.50
2023-01-18T19:16:11.281Z,23.75
2023-01-18T19:18:39.647Z,22.20
2023-01-18T19:21:07.999Z,23.58
2023-01-18T19:23:36.424Z,23.30
2023-01-18T19:26:04.423Z,22.13
2023-01-18T19:28:32.904Z,22.77
2023-01-18T19:31:06.041Z,22.13
2023-01-18T19:33:34.698Z,22.02
2023-01-18T19:36:14.841Z,22.85
2023-01-18T19:38:49.201Z,23.77
2023-01-18T19:41:20.586Z,23.33
2023-01-18T19:43:50.564Z,25.38
2023-01-18T19:46:20.581Z,28.08
2023-01-18T19:48:48.987Z,22.65
2023-01-18T19:51:22.361Z,23.33
2023-01-18T19:53:55.247Z,24.75
2023-01-18T19:56:25.194Z,22.42
2023-01-18T19:58:53.474Z,23.00
2023-01-18T20:01:35.259Z,22.92
2023-01-18T20:04:06.652Z,23.35
2023-01-18T20:06:35.419Z,24.15
2023-01-18T20:09:12.705Z,24.48
2023-01-18T20:11:46.880Z,25.10
2023-01-18T20:14:15.204Z,21.55
2023-01-18T20:16:45.897Z,23.55
2023-01-18T20:19:15.884Z,22.95
2023-01-18T20:21:43.935Z,23.17
2023-01-18T20:24:12.390Z,23.98
2023-01-18T20:26:41.959Z,23.73
2023-01-18T20:29:11.031Z,24.88
2023-01-18T20:31:39.564Z,25.45
2023-01-18T20:34:07.995Z,23.60
2023-01-18T20:36:36.825Z,24.92
2023-01-18T20:39:06.145Z,24.95
2023-01-18T20:41:34.079Z,23.33
2023-01-18T20:44:02.506Z,23.88
2023-01-18T20:46:30.430Z,26.02
2023-01-18T20:49:03.129Z,26.50
2023-01-18T20:51:32.044Z,24.20
2023-01-18T20:54:00.890Z,25.05
2023-01-18T20:56:30.780Z,25.00
2023-01-18T20:58:59.323Z,25.52
2023-01-18T21:01:36.776Z,25.40
2023-01-18T21:04:05.401Z,24.27
2023-01-18T21:06:33.630Z,25.13
2023-01-18T21:09:02.107Z,26.17
2023-01-18T21:11:30.130Z,25.55
2023-01-18T21:14:03.228Z,25.88
2023-01-18T21:16:31.283Z,26.15
2023-01-18T21:18:59.652Z,25.50
2023-01-18T21:21:29.744Z,26.67
2023-01-18T21:23:58.137Z,24.98
2023-01-18T21:26:26.263Z,25.45
2023-01-18T21:28:55.421Z,25.05
2023-01-18T21:31:23.563Z,24.90
2023-01-18T21:33:51.884Z,24.50
2023-01-18T21:36:20.342Z,24.23
2023-01-18T21:38:49.496Z,24.67
2023-01-18T21:41:36.198Z,23.98
2023-01-18T21:44:23.590Z,22.98
2023-01-18T21:46:52.807Z,24.05
2023-01-18T21:50:10.940Z,22.48
2023-01-18T21:52:48.691Z,23.55
2023-01-18T21:55:17.753Z,23.98
2023-01-18T21:58:06.189Z,22.15
2023-01-18T22:00:38.437Z,22.30
2023-01-18T22:03:06.757Z,22.67
2023-01-18T22:05:35.115Z,23.38
2023-01-18T22:08:03.160Z,23.10
2023-01-18T22:10:31.476Z,22.55
2023-01-18T22:13:00.118Z,22.83
2023-01-18T22:15:28.949Z,22.77
2023-01-18T22:17:57.208Z,21.10
2023-01-18T22:20:25.658Z,22.65
2023-01-18T22:22:54.545Z,24.08
2023-01-18T22:25:22.986Z,23.75
2023-01-18T22:27:51.134Z,22.98
2023-01-18T22:30:19.522Z,22.05
2023-01-18T22:32:47.546Z,22.40
2023-01-18T22:35:16.394Z,21.10
2023-01-18T22:37:44.445Z,22.92
2023-01-18T22:40:12.836Z,22.10
2023-01-18T22:42:40.815Z,23.48
2023-01-18T22:45:10.720Z,22.48
2023-01-18T22:47:38.671Z,22.95
2023-01-18T22:50:08.699Z,21.77
2023-01-18T22:52:36.598Z,22.52
2023-01-18T22:55:05.287Z,22.08
2023-01-18T22:57:33.211Z,22.27
2023-01-18T23:00:04.509Z,21.80
2023-01-18T23:02:33.401Z,21.38
2023-01-18T23:05:01.748Z,23.52
2023-01-18T23:07:29.728Z,20.95
2023-01-18T23:09:58.105Z,21.63
2023-01-18T23:12:26.513Z,20.45
2023-01-18T23:15:13.370Z,20.50
2023-01-18T23:17:42.488Z,21.17
2023-01-18T23:20:15.651Z,21.70
2023-01-18T23:22:44.973Z,23.80
2023-01-18T23:25:13.253Z,21.20
2023-01-18T23:27:41.213Z,20.50
2023-01-18T23:30:10.897Z,21.15
2023-01-18T23:32:38.783Z,21.90
2023-01-18T23:35:07.605Z,20.45
2023-01-18T23:37:35.526Z,21.92
2023-01-18T23:40:22.917Z,21.95
2023-01-18T23:43:12.042Z,21.50
2023-01-18T23:45:58.545Z,21.42
2023-01-18T23:48:45.142Z,21.27
2023-01-18T23:51:32.084Z,22.33
2023-01-18T23:54:16.047Z,22.17
2023-01-18T23:56:46.278Z,21.52
2023-01-18T23:59:14.382Z,22.00
